createdAt,value
2019-03-04T00:01:23.777Z,0.90
2019-03-04T00:04:10.240Z,1.00
2019-03-04T00:06:56.577Z,0.80
2019-03-04T00:09:43.076Z,0.90
2019-03-04T00:12:29.459Z,0.95
2019-03-04T00:15:15.376Z,1.00
2019-03-04T00:18:01.812Z,0.72
2019-03-04T00:20:48.074Z,1.00
2019-03-04T00:23:34.327Z,0.80
2019-03-04T00:26:20.334Z,0.82
2019-03-04T00:29:06.639Z,0.90
2019-03-04T00:31:52.501Z,0.88
2019-03-04T00:34:39.155Z,0.98
2019-03-04T00:37:25.066Z,0.85
2019-03-04T00:40:12.292Z,0.70
2019-03-04T00:42:58.150Z,0.70
2019-03-04T00:45:44.508Z,0.80
2019-03-04T00:48:31.049Z,0.80
2019-03-04T00:51:17.273Z,0.90
2019-03-04T00:54:03.556Z,0.90
2019-03-04T00:56:50.286Z,0.90
2019-03-04T00:59:36.746Z,0.70
2019-03-04T01:02:23.230Z,0.70
2019-03-04T01:05:10.016Z,0.80
2019-03-04T01:07:56.297Z,0.90
2019-03-04T01:10:42.587Z,0.75
2019-03-04T01:13:29.001Z,0.60
2019-03-04T01:16:15.210Z,0.80
2019-03-04T01:19:01.519Z,0.70
2019-03-04T01:21:47.846Z,0.40
2019-03-04T01:24:34.343Z,0.60
2019-03-04T01:27:20.548Z,0.70
2019-03-04T01:30:09.321Z,0.55
2019-03-04T01:32:55.464Z,0.50
2019-03-04T01:35:41.573Z,0.60
2019-03-04T01:38:27.924Z,0.53
2019-03-04T01:41:13.778Z,0.60
2019-03-04T01:44:00.114Z,0.70
2019-03-04T01:46:46.339Z,0.40
2019-03-04T01:49:32.643Z,0.50
2019-03-04T01:52:19.408Z,0.60
2019-03-04T01:55:07.416Z,0.50
2019-03-04T01:57:53.332Z,0.72
2019-03-04T02:00:39.776Z,0.40
2019-03-04T02:03:26.404Z,0.50
2019-03-04T02:06:12.626Z,0.40
2019-03-04T02:08:59.406Z,0.65
2019-03-04T02:11:45.653Z,0.62
2019-03-04T02:14:32.069Z,0.50
2019-03-04T02:17:18.024Z,0.50
2019-03-04T02:20:06.412Z,0.62
2019-03-04T02:22:52.675Z,0.50
2019-03-04T02:26:14.656Z,0.50
2019-03-04T02:29:01.039Z,0.50
2019-03-04T02:31:47.224Z,0.60
2019-03-04T02:34:33.473Z,0.60
2019-03-04T02:37:20.125Z,0.60
2019-03-04T02:40:07.370Z,0.40
2019-03-04T02:42:53.331Z,0.42
2019-03-04T02:45:39.745Z,0.60
2019-03-04T02:48:26.040Z,0.53
2019-03-04T02:51:11.784Z,0.35
2019-03-04T02:53:59.175Z,0.50
2019-03-04T02:56:45.386Z,0.40
2019-03-04T02:59:31.431Z,0.45
2019-03-04T03:02:17.641Z,0.42
2019-03-04T03:05:05.448Z,0.50
2019-03-04T03:07:51.827Z,0.70
2019-03-04T03:10:38.240Z,0.60
2019-03-04T03:13:24.579Z,0.65
2019-03-04T03:16:10.985Z,0.70
2019-03-04T03:18:57.208Z,0.42
2019-03-04T03:21:43.532Z,0.60
2019-03-04T03:24:29.916Z,0.60
2019-03-04T03:27:16.188Z,0.70
2019-03-04T03:30:03.099Z,0.70
2019-03-04T03:32:50.684Z,0.70
2019-03-04T03:35:36.887Z,0.90
2019-03-04T03:38:23.248Z,0.75
2019-03-04T03:41:09.765Z,0.80
2019-03-04T03:43:56.081Z,0.90
2019-03-04T03:46:42.361Z,0.95
2019-03-04T03:49:28.857Z,0.80
2019-03-04T03:52:15.066Z,1.07
2019-03-04T03:55:01.485Z,0.82
2019-03-04T03:57:47.965Z,0.90
2019-03-04T04:00:34.288Z,0.80
2019-03-04T04:03:20.719Z,0.80
2019-03-04T04:06:07.228Z,0.98
2019-03-04T04:08:53.501Z,0.80
2019-03-04T04:11:40.034Z,0.98
2019-03-04T04:14:29.203Z,1.20
2019-03-04T04:17:14.583Z,0.90
2019-03-04T04:20:00.833Z,1.07
2019-03-04T04:22:47.266Z,0.93
2019-03-04T04:25:33.525Z,0.90
2019-03-04T04:28:20.318Z,0.95
2019-03-04T04:31:06.751Z,0.90
2019-03-04T04:33:53.284Z,0.98
2019-03-04T04:36:39.599Z,1.10
2019-03-04T04:39:25.998Z,0.90
2019-03-04T04:42:12.389Z,1.10
2019-03-04T04:44:58.968Z,0.90
2019-03-04T04:47:45.147Z,0.90
2019-03-04T04:50:31.449Z,1.00
2019-03-04T04:53:17.879Z,0.93
2019-03-04T04:56:04.231Z,1.00
2019-03-04T04:58:50.548Z,1.00
2019-03-04T05:01:37.167Z,0.90
2019-03-04T05:04:23.463Z,1.10
2019-03-04T05:07:10.155Z,1.00
2019-03-04T05:09:56.253Z,0.98
2019-03-04T05:12:44.691Z,1.32
2019-03-04T05:15:31.072Z,1.10
2019-03-04T05:18:17.543Z,1.15
2019-03-04T05:21:03.755Z,1.07
2019-03-04T05:23:50.168Z,1.25
2019-03-04T05:26:36.701Z,1.00
2019-03-04T05:29:23.051Z,1.00
2019-03-04T05:32:09.292Z,1.10
2019-03-04T05:34:55.866Z,1.10
2019-03-04T05:37:42.055Z,1.42
2019-03-04T05:40:28.073Z,1.07
2019-03-04T05:43:14.376Z,1.10
2019-03-04T05:46:00.577Z,1.10
2019-03-04T05:48:46.966Z,0.90
2019-03-04T05:51:34.529Z,1.20
2019-03-04T05:54:20.749Z,0.90
2019-03-04T05:57:06.691Z,0.95
2019-03-04T05:59:52.975Z,0.98
2019-03-04T06:02:39.263Z,1.10
2019-03-04T06:05:25.539Z,1.12
2019-03-04T06:08:11.613Z,1.10
2019-03-04T06:10:57.743Z,1.15
2019-03-04T06:13:44.413Z,1.07
2019-03-04T06:16:30.691Z,1.00
2019-03-04T06:19:17.052Z,1.00
2019-03-04T06:22:03.471Z,1.02
2019-03-04T06:24:50.130Z,1.10
2019-03-04T06:27:36.288Z,0.90
2019-03-04T06:30:23.294Z,1.00
2019-03-04T06:33:09.698Z,0.95
2019-03-04T06:35:57.071Z,1.15
2019-03-04T06:38:43.256Z,0.95
2019-03-04T06:41:29.601Z,1.10
2019-03-04T06:44:15.934Z,1.10
2019-03-04T06:47:02.284Z,1.00
2019-03-04T06:49:48.576Z,1.00
2019-03-04T06:52:35.028Z,0.90
2019-03-04T06:55:49.776Z,1.00
2019-03-04T06:58:38.739Z,1.10
2019-03-04T07:01:41.517Z,1.12
2019-03-04T07:04:37.832Z,1.10
2019-03-04T07:07:24.256Z,0.90
2019-03-04T07:10:10.736Z,0.82
2019-03-04T07:12:57.089Z,1.10
2019-03-04T07:15:43.669Z,1.00
2019-03-04T07:18:29.852Z,0.90
2019-03-04T07:21:16.267Z,0.90
2019-03-04T07:24:02.627Z,1.00
2019-03-04T07:26:49.156Z,1.05
2019-03-04T07:29:35.257Z,1.00
2019-03-04T07:32:21.943Z,0.90
2019-03-04T07:35:07.785Z,0.98
2019-03-04T07:38:11.492Z,0.90
2019-03-04T07:40:57.736Z,1.00
2019-03-04T07:43:44.465Z,1.00
2019-03-04T07:46:30.919Z,0.90
2019-03-04T07:49:17.399Z,0.85
2019-03-04T07:52:03.771Z,0.85
2019-03-04T07:54:50.489Z,0.93
2019-03-04T07:57:36.733Z,0.80
2019-03-04T08:00:23.496Z,0.90
2019-03-04T08:03:09.826Z,0.90
2019-03-04T08:05:57.756Z,0.90
2019-03-04T08:09:29.016Z,0.90
2019-03-04T08:13:03.238Z,0.90
2019-03-04T08:15:52.702Z,0.90
2019-03-04T08:18:39.002Z,1.00
2019-03-04T08:21:25.272Z,1.00
2019-03-04T08:24:11.739Z,0.90
2019-03-04T08:26:57.972Z,1.00
2019-03-04T08:29:44.721Z,0.90
2019-03-04T08:32:31.217Z,0.88
2019-03-04T08:35:18.095Z,0.90
2019-03-04T08:38:04.096Z,0.90
2019-03-04T08:40:50.965Z,0.90
2019-03-04T08:43:37.280Z,0.88
2019-03-04T08:46:24.039Z,1.10
2019-03-04T08:49:10.439Z,1.02
2019-03-04T08:51:57.356Z,0.85
2019-03-04T08:54:43.488Z,1.10
2019-03-04T08:57:30.023Z,1.27
2019-03-04T09:00:19.023Z,1.00
2019-03-04T09:03:05.528Z,1.07
2019-03-04T09:05:51.911Z,1.00
2019-03-04T09:08:38.329Z,1.00
2019-03-04T09:11:24.874Z,1.02
2019-03-04T09:14:11.204Z,0.70
2019-03-04T09:16:57.498Z,1.10
2019-03-04T09:19:43.852Z,0.95
2019-03-04T09:22:30.328Z,0.80
2019-03-04T09:25:30.386Z,0.93
2019-03-04T09:28:14.245Z,1.00
2019-03-04T09:31:00.716Z,0.93
2019-03-04T09:33:47.053Z,1.00
2019-03-04T09:36:33.416Z,0.75
2019-03-04T09:39:19.667Z,0.90
2019-03-04T09:42:13.655Z,0.70
2019-03-04T09:45:01.165Z,0.80
2019-03-04T09:47:47.699Z,0.70
2019-03-04T09:50:33.553Z,1.00
2019-03-04T09:53:20.151Z,0.80
2019-03-04T09:56:06.308Z,0.98
2019-03-04T09:58:52.567Z,1.05
2019-03-04T10:02:07.496Z,0.90
2019-03-04T10:05:19.030Z,0.80
2019-03-04T10:08:32.892Z,0.90
2019-03-04T10:11:45.583Z,0.98
2019-03-04T10:15:09.080Z,1.05
2019-03-04T10:18:40.715Z,0.90
2019-03-04T10:21:36.844Z,0.90
2019-03-04T10:25:09.331Z,0.90
2019-03-04T10:28:26.351Z,0.80
2019-03-04T10:31:55.482Z,0.80
2019-03-04T10:35:01.748Z,0.80
2019-03-04T10:38:00.336Z,0.82
2019-03-04T10:41:04.053Z,0.90
2019-03-04T10:44:25.240Z,0.80
2019-03-04T10:47:11.523Z,0.70
2019-03-04T10:49:57.703Z,0.70
2019-03-04T10:52:44.087Z,0.90
2019-03-04T10:55:30.708Z,0.78
2019-03-04T10:58:16.813Z,0.80
2019-03-04T11:01:03.789Z,0.88
2019-03-04T11:03:50.119Z,0.80
2019-03-04T11:06:36.408Z,0.80
2019-03-04T11:09:22.748Z,0.75
2019-03-04T11:12:09.229Z,0.90
2019-03-04T11:14:55.847Z,0.75
2019-03-04T11:17:42.147Z,0.72
2019-03-04T11:20:28.620Z,0.70
2019-03-04T11:23:15.206Z,0.90
2019-03-04T11:26:01.980Z,0.90
2019-03-04T11:28:48.410Z,0.90
2019-03-04T11:31:35.011Z,0.85
2019-03-04T11:34:20.883Z,0.80
2019-03-04T11:37:07.607Z,0.85
2019-03-04T11:40:15.784Z,0.80
2019-03-04T11:43:02.115Z,0.80
2019-03-04T11:45:48.431Z,0.80
2019-03-04T11:48:35.109Z,0.95
2019-03-04T11:51:21.387Z,1.00
2019-03-04T11:54:07.393Z,0.80
2019-03-04T11:56:53.560Z,1.00
2019-03-04T11:59:39.828Z,0.90
2019-03-04T12:02:38.317Z,0.70
2019-03-04T12:05:17.515Z,0.80
2019-03-04T12:08:03.907Z,1.17
2019-03-04T12:10:50.832Z,0.80
2019-03-04T12:13:37.217Z,0.98
2019-03-04T12:16:24.160Z,0.80
2019-03-04T12:19:10.499Z,0.80
2019-03-04T12:21:59.315Z,0.60
2019-03-04T12:24:45.353Z,0.90
2019-03-04T12:27:31.864Z,0.80
2019-03-04T12:30:18.335Z,0.60
2019-03-04T12:33:06.084Z,0.70
2019-03-04T12:35:52.195Z,0.70
2019-03-04T12:38:38.975Z,1.10
2019-03-04T12:41:25.795Z,0.78
2019-03-04T12:44:12.015Z,0.82
2019-03-04T12:46:58.394Z,1.00
2019-03-04T12:49:45.864Z,0.80
2019-03-04T12:52:32.153Z,0.72
2019-03-04T12:55:18.612Z,0.90
2019-03-04T12:58:04.853Z,0.80
2019-03-04T13:00:51.312Z,0.70
2019-03-04T13:03:37.672Z,0.80
2019-03-04T13:06:23.844Z,0.70
2019-03-04T13:09:14.567Z,0.40
2019-03-04T13:11:58.115Z,0.60
2019-03-04T13:14:44.540Z,0.60
2019-03-04T13:17:30.948Z,0.60
2019-03-04T13:20:17.791Z,0.70
2019-03-04T13:23:04.884Z,0.80
2019-03-04T13:25:52.361Z,0.62
2019-03-04T13:28:38.596Z,0.40
2019-03-04T13:31:24.914Z,0.70
2019-03-04T13:34:11.519Z,0.50
2019-03-04T13:36:58.215Z,0.50
2019-03-04T13:39:44.676Z,0.60
2019-03-04T13:42:30.612Z,0.50
2019-03-04T13:45:16.980Z,0.60
2019-03-04T13:48:03.376Z,0.35
2019-03-04T13:50:49.659Z,0.50
2019-03-04T13:53:35.696Z,0.47
2019-03-04T13:56:21.720Z,0.42
2019-03-04T13:59:08.053Z,0.47
2019-03-04T14:01:54.723Z,0.50
2019-03-04T14:04:40.560Z,0.42
2019-03-04T14:07:27.014Z,0.60
2019-03-04T14:10:15.180Z,0.40
2019-03-04T14:13:01.335Z,0.60
2019-03-04T14:15:47.536Z,0.47
2019-03-04T14:18:36.497Z,0.42
2019-03-04T14:21:22.936Z,0.50
2019-03-04T14:24:09.528Z,0.50
2019-03-04T14:26:55.379Z,0.57
2019-03-04T14:29:41.927Z,0.40
2019-03-04T14:32:28.215Z,0.50
2019-03-04T14:35:14.763Z,0.50
2019-03-04T14:38:01.137Z,0.42
2019-03-04T14:40:47.255Z,0.55
2019-03-04T14:43:33.395Z,0.60
2019-03-04T14:46:24.395Z,0.40
2019-03-04T14:49:10.407Z,0.50
2019-03-04T14:51:56.895Z,0.47
2019-03-04T14:54:43.087Z,0.45
2019-03-04T14:57:28.908Z,0.50
2019-03-04T15:00:22.463Z,0.57
2019-03-04T15:03:19.039Z,0.60
2019-03-04T15:06:06.278Z,0.40
2019-03-04T15:08:44.580Z,0.40
2019-03-04T15:11:30.352Z,0.47
2019-03-04T15:14:16.755Z,0.62
2019-03-04T15:17:03.742Z,0.50
2019-03-04T15:19:50.687Z,0.40
2019-03-04T15:22:36.819Z,0.47
2019-03-04T15:25:27.847Z,0.50
2019-03-04T15:28:16.368Z,0.50
2019-03-04T15:31:02.542Z,0.30
2019-03-04T15:33:48.783Z,0.40
2019-03-04T15:36:35.115Z,0.35
2019-03-04T15:39:23.221Z,0.50
2019-03-04T15:42:09.284Z,0.40
2019-03-04T15:44:55.507Z,0.42
2019-03-04T15:47:42.504Z,0.33
2019-03-04T15:50:28.877Z,0.50
2019-03-04T15:53:15.815Z,0.50
2019-03-04T15:56:01.885Z,0.42
2019-03-04T15:58:48.213Z,0.57
2019-03-04T16:01:34.489Z,0.50
2019-03-04T16:04:20.486Z,0.40
2019-03-04T16:07:08.449Z,0.45
2019-03-04T16:09:54.555Z,0.47
2019-03-04T16:12:42.076Z,0.40
2019-03-04T16:15:28.429Z,0.60
2019-03-04T16:18:14.708Z,0.60
2019-03-04T16:21:01.177Z,0.50
2019-03-04T16:23:47.403Z,0.30
2019-03-04T16:26:33.259Z,0.55
2019-03-04T16:29:19.724Z,0.40
2019-03-04T16:32:06.991Z,0.62
2019-03-04T16:34:53.097Z,0.45
2019-03-04T16:37:39.363Z,0.50
2019-03-04T16:40:25.981Z,0.47
2019-03-04T16:43:11.964Z,0.50
2019-03-04T16:45:58.336Z,0.55
2019-03-04T16:48:44.669Z,0.70
2019-03-04T16:51:30.937Z,0.60
2019-03-04T16:54:17.723Z,0.60
2019-03-04T16:57:11.295Z,0.60
2019-03-04T16:59:57.577Z,0.60
2019-03-04T17:02:44.048Z,0.40
2019-03-04T17:05:30.714Z,0.60
2019-03-04T17:08:17.110Z,0.47
2019-03-04T17:11:03.481Z,0.50
2019-03-04T17:13:49.967Z,0.60
2019-03-04T17:16:35.765Z,0.60
2019-03-04T17:19:22.112Z,0.53
2019-03-04T17:22:07.795Z,0.60
2019-03-04T17:24:54.143Z,0.60
2019-03-04T17:27:41.504Z,0.70
2019-03-04T17:30:28.058Z,0.60
2019-03-04T17:33:14.212Z,0.45
2019-03-04T17:36:00.580Z,0.50
2019-03-04T17:38:46.887Z,0.75
2019-03-04T17:41:33.344Z,0.60
2019-03-04T17:44:23.699Z,0.57
2019-03-04T17:47:09.873Z,0.50
2019-03-04T17:49:56.199Z,0.50
2019-03-04T17:52:42.519Z,0.50
2019-03-04T17:55:29.235Z,0.50
2019-03-04T17:58:15.482Z,0.60
2019-03-04T18:01:01.857Z,0.55
2019-03-04T18:03:48.173Z,0.45
2019-03-04T18:06:35.256Z,0.60
2019-03-04T18:09:21.523Z,0.85
2019-03-04T18:12:07.521Z,0.70
2019-03-04T18:14:53.703Z,0.60
2019-03-04T18:17:40.015Z,0.50
2019-03-04T18:20:34.056Z,0.50
2019-03-04T18:23:14.438Z,0.45
2019-03-04T18:26:05.331Z,0.70
2019-03-04T18:29:32.147Z,0.50
2019-03-04T18:33:08.339Z,0.50
2019-03-04T18:36:16.643Z,0.40
2019-03-04T18:39:27.700Z,0.60
2019-03-04T18:42:45.700Z,0.50
2019-03-04T18:46:12.972Z,0.50
2019-03-04T18:49:01.431Z,0.50
2019-03-04T18:51:47.939Z,0.42
2019-03-04T18:54:34.207Z,0.50
2019-03-04T18:57:21.382Z,0.50
2019-03-04T19:00:12.496Z,0.45
2019-03-04T19:02:59.257Z,0.50
2019-03-04T19:05:45.547Z,0.50
2019-03-04T19:08:31.876Z,0.70
2019-03-04T19:11:18.265Z,0.30
2019-03-04T19:14:04.713Z,0.68
2019-03-04T19:16:52.023Z,0.47
2019-03-04T19:19:38.134Z,0.40
2019-03-04T19:22:24.401Z,0.30
2019-03-04T19:25:11.107Z,0.50
2019-03-04T19:27:57.684Z,0.60
2019-03-04T19:30:45.204Z,0.37
2019-03-04T19:33:32.797Z,0.50
2019-03-04T19:36:19.236Z,0.40
2019-03-04T19:39:06.531Z,0.50
2019-03-04T19:41:53.453Z,0.60
2019-03-04T19:44:39.883Z,0.40
2019-03-04T19:47:26.201Z,0.35
2019-03-04T19:50:12.937Z,0.40
2019-03-04T19:52:59.024Z,0.37
2019-03-04T19:55:45.318Z,0.50
2019-03-04T19:58:32.171Z,0.50
2019-03-04T20:01:18.600Z,0.50
2019-03-04T20:04:05.174Z,0.70
2019-03-04T20:06:51.424Z,0.65
2019-03-04T20:09:37.927Z,0.55
2019-03-04T20:12:24.195Z,0.50
2019-03-04T20:15:13.698Z,0.50
2019-03-04T20:18:00.015Z,0.50
2019-03-04T20:20:46.429Z,0.60
2019-03-04T20:23:32.703Z,0.50
2019-03-04T20:26:19.209Z,0.45
2019-03-04T20:29:05.480Z,0.50
2019-03-04T20:31:51.988Z,0.55
2019-03-04T20:34:38.453Z,0.50
2019-03-04T20:37:25.879Z,0.50
2019-03-04T20:40:12.125Z,0.53
2019-03-04T20:42:59.022Z,0.55
2019-03-04T20:45:45.033Z,0.60
2019-03-04T20:48:32.312Z,0.40
2019-03-04T20:51:18.607Z,0.60
2019-03-04T20:54:04.928Z,0.45
2019-03-04T20:56:51.246Z,0.60
2019-03-04T20:59:38.106Z,0.40
2019-03-04T21:02:24.338Z,0.40
2019-03-04T21:05:10.961Z,0.50
2019-03-04T21:07:58.661Z,0.50
2019-03-04T21:10:44.811Z,0.45
2019-03-04T21:13:35.757Z,0.53
2019-03-04T21:16:21.256Z,0.40
2019-03-04T21:19:08.267Z,0.62
2019-03-04T21:21:54.996Z,0.60
2019-03-04T21:24:41.261Z,0.60
2019-03-04T21:27:28.295Z,0.70
2019-03-04T21:30:37.784Z,0.60
2019-03-04T21:33:41.311Z,0.55
2019-03-04T21:36:47.487Z,0.60
2019-03-04T21:39:35.433Z,0.50
2019-03-04T21:42:37.436Z,0.60
2019-03-04T21:45:49.649Z,0.50
2019-03-04T21:48:51.831Z,0.72
2019-03-04T21:52:19.838Z,0.47
2019-03-04T21:54:59.048Z,0.60
2019-03-04T21:57:51.013Z,0.50
2019-03-04T22:00:39.833Z,0.60
2019-03-04T22:03:29.768Z,0.70
2019-03-04T22:06:16.752Z,0.70
2019-03-04T22:09:04.812Z,0.60
2019-03-04T22:11:52.455Z,0.70
2019-03-04T22:14:39.102Z,0.50
2019-03-04T22:17:27.124Z,0.40
2019-03-04T22:20:14.431Z,0.40
2019-03-04T22:23:00.656Z,0.62
2019-03-04T22:25:48.306Z,0.65
2019-03-04T22:28:34.595Z,0.50
2019-03-04T22:31:21.328Z,0.42
2019-03-04T22:34:07.774Z,0.50
2019-03-04T22:36:54.352Z,0.55
2019-03-04T22:39:40.605Z,0.55
2019-03-04T22:42:27.361Z,0.62
2019-03-04T22:45:15.632Z,0.50
2019-03-04T22:48:02.189Z,0.80
2019-03-04T22:50:48.856Z,0.50
2019-03-04T22:53:36.424Z,0.60
2019-03-04T22:56:22.424Z,0.60
2019-03-04T22:59:08.913Z,0.50
2019-03-04T23:01:59.404Z,0.40
2019-03-04T23:05:13.214Z,0.60
2019-03-04T23:07:59.444Z,0.50
2019-03-04T23:10:47.905Z,0.50
2019-03-04T23:14:05.344Z,0.57
2019-03-04T23:16:51.572Z,0.78
2019-03-04T23:19:37.479Z,0.40
2019-03-04T23:22:24.868Z,0.60
2019-03-04T23:25:11.375Z,0.53
2019-03-04T23:27:57.791Z,0.50
2019-03-04T23:30:44.082Z,0.70
2019-03-04T23:33:31.082Z,0.40
2019-03-04T23:36:17.363Z,0.65
2019-03-04T23:39:05.884Z,0.70
2019-03-04T23:41:53.453Z,0.50
2019-03-04T23:44:39.715Z,0.40
2019-03-04T23:47:25.540Z,0.65
2019-03-04T23:50:17.943Z,0.70
2019-03-04T23:53:03.808Z,0.40
2019-03-04T23:55:49.683Z,0.50
2019-03-04T23:58:35.943Z,0.40
